Terminal Aerodrome Forecast
Issued by NWS Knoxville/Tri Cities, TN

Home | Current Version | Previous Version | Text Only | Print | Product List | Glossary On
Versions: 1 2 3 4 5 6 7 8 9 10 11 12 13 14 15 16 17 18 19 20 21 22 23 24 25 26 27 28
000
FTUS44 KMRX 261728
TAFCHA
TAF
KCHA 261728Z 2618/2718 19010G16KT P6SM VCTS BKN025CB
     FM261930 19011G16KT P6SM VCTS BKN035CB
     FM270000 VRB04KT P6SM BKN040
     FM271000 00000KT 5SM BR SCT015 BKN040
     FM271300 19007KT P6SM SCT020 BKN035=

USA.gov is the U.S. government's official web portal to all federal, state and local government web resources and services.